Time;durP1;ratioP1;P1;durP2;ratioP2;P2;SDS_P1;SDS_P2;PMS_P1;PMS_P2;Temp;Humidity;BMP_temperature;BMP_pressure;BME280_temperature;BME280_humidity;BME280_pressure;Samples;Min_cycle;Max_cycle;Signal;HPM_P1;HPM_P2
2022/03/17 00:01:34;;;;;;;45.38;26.00;;;23.20;34.20;;;;;;6139902;28;83149;-70
2022/03/17 00:04:34;;;;;;;50.45;27.00;;;23.20;34.30;;;;;;6158836;28;83326;-70
2022/03/17 00:07:35;;;;;;;47.10;24.88;;;23.20;34.30;;;;;;6147980;28;83445;-71
2022/03/17 00:10:35;;;;;;;52.08;26.35;;;23.20;34.30;;;;;;6135014;28;83133;-72
2022/03/17 00:13:36;;;;;;;46.25;26.77;;;23.10;34.10;;;;;;6135301;28;82897;-70
2022/03/17 00:16:36;;;;;;;45.63;26.85;;;23.20;34.30;;;;;;6134957;28;83046;-70
2022/03/17 00:19:37;;;;;;;46.53;26.80;;;23.20;34.30;;;;;;6142269;28;82901;-70
2022/03/17 00:22:37;;;;;;;47.08;26.63;;;23.20;34.30;;;;;;6158832;28;83635;-71
2022/03/17 00:25:38;;;;;;;43.08;26.05;;;23.20;34.10;;;;;;6159093;28;82995;-70
2022/03/17 00:28:39;;;;;;;50.70;27.08;;;23.20;34.30;;;;;;6144314;28;83158;-70
2022/03/17 00:31:39;;;;;;;47.22;26.60;;;23.20;34.30;;;;;;6135496;28;83231;-70
2022/03/17 00:37:59;;;;;;;46.17;25.80;;;23.10;34.20;;;;;;6150410;28;83205;-70
2022/03/17 00:40:59;;;;;;;46.42;25.00;;;23.10;34.10;;;;;;6145381;28;83820;-69
2022/03/17 00:44:00;;;;;;;45.50;26.02;;;23.10;34.10;;;;;;6147128;28;83507;-69
2022/03/17 00:47:01;;;;;;;47.28;26.85;;;23.10;34.00;;;;;;6159173;28;83737;-70
2022/03/17 00:50:02;;;;;;;45.22;27.88;;;23.10;34.00;;;;;;6135404;28;86159;-69
2022/03/17 00:53:02;;;;;;;45.38;25.90;;;23.10;34.00;;;;;;6157921;28;83508;-69
2022/03/17 00:56:04;;;;;;;44.22;25.70;;;23.10;34.70;;;;;;6157702;28;84574;-69
2022/03/17 00:59:04;;;;;;;42.55;24.70;;;23.10;34.20;;;;;;6158504;28;83101;-69
2022/03/17 01:02:05;;;;;;;42.08;25.27;;;23.10;34.10;;;;;;6150172;28;84187;-69
2022/03/17 01:05:06;;;;;;;46.20;25.58;;;23.10;34.30;;;;;;6146590;28;83142;-69
2022/03/17 01:08:06;;;;;;;45.13;25.95;;;23.10;34.20;;;;;;6158308;28;82914;-70
2022/03/17 01:11:07;;;;;;;44.85;25.83;;;23.10;34.20;;;;;;6154848;28;83953;-69
2022/03/17 01:14:08;;;;;;;41.47;25.25;;;23.10;34.20;;;;;;6157858;28;83086;-69
2022/03/17 01:17:09;;;;;;;45.13;24.98;;;23.10;34.10;;;;;;6158134;28;83109;-69
2022/03/17 01:20:09;;;;;;;46.55;25.23;;;23.10;34.30;;;;;;6149524;28;84496;-70
2022/03/17 01:23:10;;;;;;;41.75;23.90;;;23.10;34.20;;;;;;6157882;28;84580;-70
2022/03/17 01:26:10;;;;;;;44.75;25.75;;;23.10;34.10;;;;;;6156254;28;83468;-69
2022/03/17 01:29:11;;;;;;;42.55;24.60;;;23.10;33.80;;;;;;6157704;28;85782;-69
2022/03/17 01:32:11;;;;;;;40.00;24.17;;;23.10;34.00;;;;;;6157722;28;83182;-69
2022/03/17 01:35:12;;;;;;;42.28;23.63;;;23.10;34.00;;;;;;6155964;28;84525;-69
2022/03/17 01:38:12;;;;;;;40.05;23.80;;;23.00;33.90;;;;;;6133781;28;83108;-69
2022/03/17 01:41:14;;;;;;;42.67;23.88;;;23.10;34.00;;;;;;6139662;28;84136;-69
2022/03/17 01:44:14;;;;;;;45.50;25.70;;;23.10;34.00;;;;;;6142821;28;83177;-69
2022/03/17 01:47:27;;;;;;;40.60;23.83;;;23.10;34.00;;;;;;6154489;28;83600;-69
2022/03/17 01:50:27;;;;;;;40.22;24.63;;;23.00;33.90;;;;;;6145200;28;82955;-69
2022/03/17 01:53:28;;;;;;;43.35;24.02;;;23.00;34.00;;;;;;6149431;28;82901;-69
2022/03/17 01:56:28;;;;;;;42.00;22.90;;;23.00;34.00;;;;;;6156761;28;83520;-69
2022/03/17 01:59:30;;;;;;;38.33;23.08;;;23.00;34.00;;;;;;6140702;28;83119;-70
2022/03/17 02:02:31;;;;;;;38.90;21.77;;;23.00;34.00;;;;;;6157446;28;82937;-69
2022/03/17 02:05:32;;;;;;;40.85;25.05;;;23.00;33.60;;;;;;6146338;28;82673;-70
2022/03/17 02:08:33;;;;;;;37.40;23.05;;;23.00;34.00;;;;;;6133549;28;83272;-70
2022/03/17 02:14:53;;;;;;;38.25;23.83;;;23.00;33.90;;;;;;6156950;28;82993;-71
2022/03/17 02:17:54;;;;;;;37.33;22.75;;;23.00;34.10;;;;;;6156183;28;83543;-71
2022/03/17 02:20:57;;;;;;;36.90;23.38;;;23.00;34.00;;;;;;6154735;28;84375;-71
2022/03/17 02:27:18;;;;;;;41.60;23.25;;;23.00;34.10;;;;;;6150003;28;83124;-71
2022/03/17 02:30:19;;;;;;;41.58;23.63;;;23.00;34.10;;;;;;6156465;28;83262;-70
2022/03/17 02:33:19;;;;;;;33.05;21.55;;;23.00;34.00;;;;;;6156467;28;84123;-70
2022/03/17 02:36:20;;;;;;;37.78;23.15;;;23.00;34.10;;;;;;6153860;28;83220;-70
2022/03/17 02:39:21;;;;;;;38.05;21.33;;;23.00;33.80;;;;;;6144481;28;83239;-70
2022/03/17 02:42:23;;;;;;;38.17;22.70;;;23.00;34.20;;;;;;6139066;28;82969;-70
2022/03/17 02:45:23;;;;;;;32.70;20.88;;;22.90;33.80;;;;;;6132985;28;83185;-68
2022/03/17 02:48:24;;;;;;;36.88;20.95;;;23.00;34.00;;;;;;6140751;28;83316;-69
2022/03/17 02:51:24;;;;;;;38.97;21.90;;;23.00;34.20;;;;;;6139368;28;83053;-68
2022/03/17 02:54:25;;;;;;;41.10;24.05;;;22.90;34.00;;;;;;6146397;28;83223;-69
2022/03/17 02:57:25;;;;;;;36.30;22.02;;;22.90;34.10;;;;;;6137405;28;83288;-68
2022/03/17 03:00:26;;;;;;;40.55;23.48;;;22.90;33.90;;;;;;6153524;28;83976;-69
2022/03/17 03:03:27;;;;;;;40.85;24.00;;;22.90;34.00;;;;;;6134930;28;83237;-69
2022/03/17 03:06:27;;;;;;;39.13;23.38;;;22.90;33.80;;;;;;6134138;28;83026;-68
2022/03/17 03:09:28;;;;;;;38.97;23.58;;;22.90;33.70;;;;;;6146882;28;83051;-68
2022/03/17 03:12:28;;;;;;;43.63;23.45;;;22.90;33.60;;;;;;6144301;28;86241;-68
2022/03/17 03:15:29;;;;;;;37.13;22.17;;;22.90;33.30;;;;;;6139083;28;83777;-69
2022/03/17 03:18:31;;;;;;;34.90;22.40;;;22.90;33.70;;;;;;6135395;28;84092;-69
2022/03/17 03:21:31;;;;;;;38.17;23.55;;;22.90;33.40;;;;;;6135454;28;84625;-70
2022/03/17 03:24:33;;;;;;;39.17;23.33;;;22.90;33.50;;;;;;6136781;28;82982;-69
2022/03/17 03:27:33;;;;;;;38.42;23.23;;;22.90;33.60;;;;;;6159791;28;82948;-69
2022/03/17 03:30:34;;;;;;;39.60;23.05;;;22.90;33.60;;;;;;6150824;28;82712;-70
2022/03/17 03:33:35;;;;;;;34.33;21.58;;;22.90;33.60;;;;;;6135520;28;83059;-70
2022/03/17 03:40:00;;;;;;;37.53;23.10;;;22.80;33.40;;;;;;6147805;28;83015;-69
2022/03/17 03:43:00;;;;;;;41.20;22.48;;;22.90;33.10;;;;;;6146821;28;82994;-70
2022/03/17 03:46:01;;;;;;;34.60;20.60;;;22.90;34.10;;;;;;6154622;28;83131;-69
2022/03/17 03:49:01;;;;;;;34.50;21.20;;;22.90;33.60;;;;;;6147080;28;83354;-70
2022/03/17 03:52:02;;;;;;;36.72;22.15;;;22.90;33.60;;;;;;6159151;28;87555;-70
2022/03/17 03:55:02;;;;;;;36.33;21.77;;;22.90;33.70;;;;;;6151751;28;83358;-70
2022/03/17 03:58:03;;;;;;;35.63;22.08;;;22.80;33.20;;;;;;6152340;28;83687;-70
2022/03/17 04:01:03;;;;;;;38.63;23.15;;;22.80;33.50;;;;;;6157364;28;83457;-71
2022/03/17 04:04:04;;;;;;;34.80;21.60;;;22.80;33.40;;;;;;6159349;28;83129;-69
2022/03/17 04:07:04;;;;;;;37.45;21.85;;;22.80;33.30;;;;;;6158237;28;83266;-70
2022/03/17 04:10:05;;;;;;;34.90;18.95;;;22.80;33.60;;;;;;6159292;28;83119;-70
2022/03/17 04:13:05;;;;;;;33.35;20.65;;;22.80;33.80;;;;;;6158696;28;90214;-71
2022/03/17 04:16:06;;;;;;;38.72;22.30;;;22.80;32.70;;;;;;6158202;28;82711;-71
2022/03/17 04:19:07;;;;;;;35.80;22.85;;;22.80;32.70;;;;;;6135124;28;83242;-71
2022/03/17 04:22:07;;;;;;;36.28;21.90;;;22.90;32.90;;;;;;6142865;28;83278;-70
2022/03/17 04:25:08;;;;;;;41.67;24.13;;;22.90;32.70;;;;;;6158826;28;82957;-70
2022/03/17 04:28:09;;;;;;;42.05;23.45;;;23.00;32.70;;;;;;6145998;28;85062;-70
2022/03/17 04:31:09;;;;;;;39.22;23.27;;;23.00;32.40;;;;;;6153258;28;83117;-69
2022/03/17 04:34:10;;;;;;;36.53;21.33;;;23.00;32.30;;;;;;6132333;28;84385;-69
2022/03/17 04:37:10;;;;;;;34.20;21.38;;;23.10;32.10;;;;;;6134102;28;83308;-69
2022/03/17 04:40:11;;;;;;;36.53;21.70;;;23.10;32.00;;;;;;6134703;28;83170;-70
2022/03/17 04:43:12;;;;;;;35.17;22.50;;;23.20;31.90;;;;;;6146449;28;83082;-72
2022/03/17 04:46:12;;;;;;;36.63;22.70;;;23.20;31.80;;;;;;6158425;28;83481;-71
2022/03/17 04:49:13;;;;;;;36.55;22.75;;;23.20;32.00;;;;;;6153967;28;82877;-69
2022/03/17 04:55:33;;;;;;;38.40;23.27;;;23.30;32.10;;;;;;6153531;28;87848;-69
2022/03/17 04:58:33;;;;;;;35.72;22.33;;;23.40;32.50;;;;;;6157371;28;83116;-72
2022/03/17 05:01:34;;;;;;;38.45;23.20;;;23.40;32.20;;;;;;6149086;28;83692;-71
2022/03/17 05:04:34;;;;;;;39.03;23.10;;;23.40;32.20;;;;;;6147028;28;84436;-74
2022/03/17 05:07:35;;;;;;;39.95;22.88;;;23.40;32.20;;;;;;6154107;28;83020;-73
2022/03/17 05:10:35;;;;;;;42.13;24.08;;;23.50;32.20;;;;;;6154886;28;83152;-74
2022/03/17 05:13:36;;;;;;;37.05;22.58;;;23.50;32.10;;;;;;6153105;28;83106;-77
2022/03/17 05:16:38;;;;;;;37.50;22.15;;;23.50;31.90;;;;;;6158136;28;83364;-77
2022/03/17 05:19:38;;;;;;;41.08;23.17;;;23.50;32.20;;;;;;6157865;28;84160;-79
2022/03/17 05:22:39;;;;;;;35.92;22.58;;;23.50;32.30;;;;;;6158107;28;83318;-79
2022/03/17 05:25:40;;;;;;;40.58;23.08;;;23.50;32.30;;;;;;6158237;28;83435;-76
2022/03/17 05:28:40;;;;;;;36.55;22.52;;;23.50;32.40;;;;;;6136390;28;83199;-74
2022/03/17 05:31:42;;;;;;;42.55;22.98;;;23.60;32.50;;;;;;6152282;28;83957;-80
2022/03/17 05:34:43;;;;;;;40.10;23.17;;;23.60;32.40;;;;;;6158230;28;83407;-75
2022/03/17 05:37:44;;;;;;;39.58;21.35;;;23.60;32.20;;;;;;6151867;28;83018;-78
2022/03/17 05:40:45;;;;;;;43.05;23.25;;;23.60;32.40;;;;;;6143372;28;84004;-78
2022/03/17 05:43:45;;;;;;;38.38;22.20;;;23.60;32.70;;;;;;6155546;28;90274;-80
2022/03/17 05:46:46;;;;;;;38.00;23.15;;;23.60;32.50;;;;;;6152061;28;83035;-77
2022/03/17 05:49:49;;;;;;;47.70;23.95;;;23.60;32.90;;;;;;6156372;28;83130;-77
2022/03/17 05:52:50;;;;;;;48.60;24.40;;;23.60;33.00;;;;;;6157900;28;83807;-79
2022/03/17 05:55:50;;;;;;;64.40;26.13;;;23.70;33.10;;;;;;6157845;28;83522;-79
2022/03/17 05:58:51;;;;;;;56.33;25.58;;;23.70;32.90;;;;;;6157527;28;82696;-75
2022/03/17 06:01:52;;;;;;;56.25;24.60;;;23.70;32.80;;;;;;6143159;28;83549;-76
2022/03/17 06:04:52;;;;;;;51.20;25.77;;;23.70;33.00;;;;;;6132888;28;83103;-77
2022/03/17 06:07:53;;;;;;;57.95;23.20;;;23.70;32.90;;;;;;6146437;28;83020;-77
2022/03/17 06:10:53;;;;;;;43.13;23.40;;;23.70;32.80;;;;;;6157180;28;82775;-77
2022/03/17 06:13:54;;;;;;;39.78;22.15;;;23.70;32.70;;;;;;6141012;28;84051;-76
2022/03/17 06:16:55;;;;;;;39.30;22.52;;;23.70;32.70;;;;;;6152022;28;84151;-78
2022/03/17 06:19:55;;;;;;;45.35;22.15;;;23.70;32.60;;;;;;6132647;28;84190;-74
2022/03/17 06:22:56;;;;;;;44.78;22.55;;;23.60;32.60;;;;;;6144687;28;83069;-70
2022/03/17 06:25:56;;;;;;;48.80;22.63;;;23.70;32.60;;;;;;6154859;28;82857;-66
2022/03/17 06:28:57;;;;;;;41.22;21.60;;;23.70;32.60;;;;;;6137598;28;83069;-66
2022/03/17 06:31:57;;;;;;;47.67;22.05;;;23.70;32.60;;;;;;6135055;28;82913;-75
2022/03/17 06:34:58;;;;;;;40.42;22.38;;;23.70;32.30;;;;;;6152754;28;84087;-76
2022/03/17 06:37:59;;;;;;;42.13;21.20;;;23.70;32.40;;;;;;6156468;28;83192;-74
2022/03/17 06:40:59;;;;;;;41.92;21.02;;;23.70;32.90;;;;;;6156469;28;83112;-73
2022/03/17 06:44:00;;;;;;;33.53;20.60;;;23.70;32.90;;;;;;6155923;28;83070;-75
2022/03/17 06:47:00;;;;;;;39.03;21.30;;;23.70;32.80;;;;;;6156567;28;83157;-76
2022/03/17 06:50:01;;;;;;;42.90;24.90;;;23.70;32.70;;;;;;6156056;28;83683;-76
2022/03/17 06:53:01;;;;;;;48.22;27.52;;;23.60;32.40;;;;;;6154426;28;83287;-76
2022/03/17 06:56:02;;;;;;;48.97;28.05;;;23.60;32.00;;;;;;6138241;28;83076;-75
2022/03/17 06:59:02;;;;;;;48.88;29.80;;;23.60;31.70;;;;;;6147214;28;83175;-75
2022/03/17 07:02:03;;;;;;;52.28;29.95;;;23.50;31.30;;;;;;6160708;28;83377;-75
2022/03/17 07:05:03;;;;;;;50.63;29.77;;;23.50;31.00;;;;;;6159818;28;83021;-76
2022/03/17 07:08:04;;;;;;;54.22;30.20;;;23.50;31.00;;;;;;6150756;28;83065;-76
2022/03/17 07:11:04;;;;;;;50.42;30.25;;;23.50;31.00;;;;;;6159641;28;83203;-75
2022/03/17 07:14:05;;;;;;;50.67;30.15;;;23.40;30.90;;;;;;6159766;28;83096;-74
2022/03/17 07:17:06;;;;;;;49.25;30.05;;;23.40;30.90;;;;;;6160447;28;84055;-74
2022/03/17 07:20:06;;;;;;;47.30;27.42;;;23.40;30.60;;;;;;6160253;28;82899;-73
2022/03/17 07:23:07;;;;;;;50.33;28.90;;;23.40;30.50;;;;;;6142982;28;83241;-74
2022/03/17 07:26:07;;;;;;;54.28;30.10;;;23.30;30.50;;;;;;6135814;28;82885;-73
2022/03/17 07:29:08;;;;;;;54.58;29.95;;;23.30;30.50;;;;;;6151382;28;83586;-75
2022/03/17 07:32:10;;;;;;;54.78;31.55;;;23.30;30.50;;;;;;6159635;28;82925;-75
2022/03/17 07:35:11;;;;;;;52.88;32.08;;;23.30;30.60;;;;;;6146470;28;84448;-75
2022/03/17 07:38:12;;;;;;;110.07;38.80;;;23.20;30.50;;;;;;6159922;28;84147;-75
2022/03/17 07:41:14;;;;;;;101.93;38.72;;;23.20;31.10;;;;;;6159675;28;82895;-75
2022/03/17 07:44:14;;;;;;;92.85;34.85;;;23.20;30.50;;;;;;6159204;28;82991;-75
2022/03/17 07:47:33;;;;;;;86.00;36.67;;;23.20;30.30;;;;;;6145328;28;82747;-76
2022/03/17 07:50:34;;;;;;;54.03;32.85;;;23.20;30.40;;;;;;6158547;28;83232;-76
2022/03/17 07:53:34;;;;;;;60.75;31.55;;;23.20;30.30;;;;;;6153455;28;83215;-76
2022/03/17 07:56:35;;;;;;;55.45;31.45;;;23.20;30.10;;;;;;6154557;28;84311;-74
2022/03/17 07:59:36;;;;;;;60.83;30.00;;;23.20;30.20;;;;;;6135892;28;83039;-75
2022/03/17 08:02:36;;;;;;;60.20;30.00;;;23.20;30.20;;;;;;6134820;28;82939;-75
2022/03/17 08:05:37;;;;;;;51.88;30.00;;;23.20;30.20;;;;;;6151404;28;83404;-73
2022/03/17 08:08:37;;;;;;;58.38;30.00;;;23.20;30.00;;;;;;6143494;28;83002;-76
2022/03/17 08:11:38;;;;;;;45.80;27.42;;;23.20;30.00;;;;;;6135366;28;83050;-73
2022/03/17 08:14:39;;;;;;;41.63;26.90;;;23.30;30.10;;;;;;6156029;28;83481;-75
2022/03/17 08:17:39;;;;;;;44.60;27.88;;;23.30;30.10;;;;;;6154716;28;82900;-73
2022/03/17 08:20:40;;;;;;;46.70;25.35;;;23.30;30.10;;;;;;6135330;28;83473;-73
2022/03/17 08:23:40;;;;;;;41.58;24.63;;;23.40;30.20;;;;;;6134451;28;83555;-73
2022/03/17 08:26:41;;;;;;;44.00;25.15;;;23.40;30.00;;;;;;6146077;28;83059;-74
2022/03/17 08:29:42;;;;;;;43.97;25.80;;;23.50;30.00;;;;;;6159046;28;83079;-64
2022/03/17 08:32:43;;;;;;;41.70;24.40;;;23.60;30.00;;;;;;6157452;28;83557;-72
2022/03/17 08:35:44;;;;;;;38.95;24.05;;;23.60;30.00;;;;;;6153188;28;83340;-73
2022/03/17 08:38:44;;;;;;;41.42;24.38;;;23.70;29.90;;;;;;6146129;28;82956;-73
2022/03/17 08:41:45;;;;;;;42.08;21.58;;;23.70;29.70;;;;;;6157907;28;83437;-74
2022/03/17 08:44:45;;;;;;;39.13;21.50;;;23.80;29.50;;;;;;6156524;28;84050;-73
2022/03/17 08:51:12;;;;;;;36.47;21.00;;;24.00;29.50;;;;;;6144062;28;84281;-74
2022/03/17 08:54:12;;;;;;;33.85;21.08;;;24.00;29.50;;;;;;6156361;28;83081;-74
2022/03/17 08:57:13;;;;;;;35.95;20.88;;;24.10;29.40;;;;;;6158359;28;82958;-75
2022/03/17 09:00:14;;;;;;;37.53;20.95;;;24.10;29.20;;;;;;6158382;28;82928;-75
2022/03/17 09:03:15;;;;;;;33.38;19.95;;;24.10;29.20;;;;;;6154270;28;85981;-65
2022/03/17 09:06:15;;;;;;;33.78;19.23;;;24.20;29.00;;;;;;6157413;28;83464;-66
2022/03/17 09:09:16;;;;;;;34.22;19.25;;;24.20;29.00;;;;;;6156098;28;84036;-66
2022/03/17 09:12:18;;;;;;;29.25;17.85;;;24.30;29.10;;;;;;6157082;28;83063;-73
2022/03/17 09:15:19;;;;;;;33.72;16.80;;;24.30;29.30;;;;;;6156140;28;83525;-76
2022/03/17 09:18:21;;;;;;;29.17;16.80;;;24.40;30.00;;;;;;6158175;28;83431;-74
2022/03/17 09:21:21;;;;;;;30.95;16.40;;;24.40;30.50;;;;;;6139516;28;82671;-64
2022/03/17 09:24:22;;;;;;;27.52;16.17;;;24.40;30.80;;;;;;6133678;28;83006;-73
2022/03/17 09:27:22;;;;;;;26.85;15.15;;;24.50;31.10;;;;;;6149296;28;84239;-67
2022/03/17 09:30:23;;;;;;;27.52;15.10;;;24.50;31.70;;;;;;6137820;28;83039;-76
2022/03/17 09:33:26;;;;;;;24.38;14.18;;;24.60;31.50;;;;;;6139782;28;83226;-76
2022/03/17 09:36:27;;;;;;;24.50;12.57;;;24.60;31.70;;;;;;6157853;28;82901;-77
2022/03/17 09:39:43;;;;;;;25.92;13.77;;;24.60;32.60;;;;;;6158149;28;84233;-75
2022/03/17 09:42:44;;;;;;;24.88;12.20;;;24.70;32.50;;;;;;6157663;28;83093;-65
2022/03/17 09:45:45;;;;;;;20.52;11.43;;;24.80;32.30;;;;;;6143771;28;82993;-75
2022/03/17 09:48:45;;;;;;;19.25;11.02;;;24.80;32.10;;;;;;6152841;28;84309;-75
2022/03/17 09:51:46;;;;;;;37.78;24.85;;;24.80;31.90;;;;;;6156799;28;82967;-74
2022/03/17 09:54:47;;;;;;;76.38;56.10;;;24.90;31.60;;;;;;6149070;28;82868;-75
2022/03/17 09:57:47;;;;;;;49.58;36.85;;;25.10;31.40;;;;;;6144890;28;84238;-74
2022/03/17 10:00:48;;;;;;;72.05;53.17;;;25.10;31.30;;;;;;6151788;28;83129;-74
2022/03/17 10:03:48;;;;;;;73.95;51.53;;;25.20;31.10;;;;;;6154077;28;82952;-76
2022/03/17 10:06:50;;;;;;;107.70;75.85;;;25.20;31.00;;;;;;6155489;28;82867;-74
2022/03/17 10:09:51;;;;;;;88.60;61.38;;;25.30;30.90;;;;;;6144084;28;84431;-75
2022/03/17 10:12:51;;;;;;;106.90;74.10;;;25.20;31.10;;;;;;6145473;28;83534;-75
2022/03/17 10:15:52;;;;;;;122.85;84.07;;;25.30;30.60;;;;;;6140887;28;83398;-74
2022/03/17 10:18:53;;;;;;;111.07;80.03;;;25.40;30.90;;;;;;6156781;28;82983;-75
2022/03/17 10:21:54;;;;;;;82.05;57.17;;;25.40;30.40;;;;;;6157481;28;83262;-72
2022/03/17 10:24:54;;;;;;;70.68;48.35;;;25.30;30.50;;;;;;6138530;28;82894;-65
2022/03/17 10:27:55;;;;;;;64.15;41.10;;;25.30;30.70;;;;;;6136455;28;83798;-65
2022/03/17 10:30:55;;;;;;;51.60;35.65;;;25.20;30.50;;;;;;6142450;28;83746;-64
2022/03/17 10:33:57;;;;;;;40.78;28.38;;;25.20;30.40;;;;;;6156518;28;83229;-66
2022/03/17 10:36:58;;;;;;;40.80;24.73;;;25.20;30.50;;;;;;6152606;28;83020;-72
2022/03/17 10:40:01;;;;;;;28.30;20.40;;;25.20;30.40;;;;;;6150694;28;83519;-74
2022/03/17 10:43:01;;;;;;;27.33;17.73;;;25.20;30.40;;;;;;6148266;28;83433;-75
2022/03/17 10:46:02;;;;;;;26.95;14.45;;;25.10;30.40;;;;;;6147152;28;83840;-75
2022/03/17 10:49:02;;;;;;;17.73;12.63;;;25.10;30.00;;;;;;6152994;28;83205;-77
2022/03/17 10:52:03;;;;;;;18.25;11.93;;;25.10;30.00;;;;;;6142959;28;82862;-77
2022/03/17 10:55:03;;;;;;;15.65;11.18;;;25.10;30.00;;;;;;6152709;28;83088;-72
2022/03/17 10:58:04;;;;;;;19.00;10.15;;;25.10;30.00;;;;;;6139195;28;83054;-74
2022/03/17 11:01:05;;;;;;;15.55;9.23;;;25.10;30.00;;;;;;6156657;28;82844;-75
2022/03/17 11:04:05;;;;;;;12.60;8.98;;;25.10;30.10;;;;;;6155361;28;82886;-74
2022/03/17 11:07:06;;;;;;;12.45;8.52;;;25.00;30.10;;;;;;6145489;28;80659;-75
2022/03/17 11:10:07;;;;;;;11.48;7.95;;;25.00;30.20;;;;;;6157055;28;80518;-75
2022/03/17 11:13:13;;;;;;;11.38;7.22;;;25.00;30.10;;;;;;6160339;28;80556;-74
2022/03/17 11:16:14;;;;;;;10.07;7.28;;;25.00;30.10;;;;;;6158458;28;81543;-73
2022/03/17 11:19:15;;;;;;;10.15;6.95;;;25.00;30.10;;;;;;6158167;28;81288;-75
2022/03/17 11:22:15;;;;;;;12.00;6.10;;;25.10;30.00;;;;;;6145481;28;80518;-75
2022/03/17 11:25:16;;;;;;;8.55;5.78;;;25.10;30.00;;;;;;6135708;28;80432;-73
2022/03/17 11:28:16;;;;;;;9.43;6.40;;;25.10;30.00;;;;;;6155914;28;80855;-76
2022/03/17 11:31:17;;;;;;;27.08;5.47;;;25.10;30.10;;;;;;6154356;28;81073;-74
2022/03/17 11:34:17;;;;;;;9.15;5.97;;;25.10;30.10;;;;;;6148923;28;80923;-70
2022/03/17 11:37:18;;;;;;;8.38;4.80;;;25.10;30.20;;;;;;6147155;28;80390;-76
2022/03/17 11:40:19;;;;;;;9.70;5.30;;;25.10;30.30;;;;;;6139800;28;80197;-73
2022/03/17 11:43:20;;;;;;;7.22;5.20;;;25.10;30.20;;;;;;6157535;28;80607;-75
2022/03/17 11:46:21;;;;;;;9.70;4.88;;;25.10;30.20;;;;;;6162969;28;80938;-74
2022/03/17 11:49:21;;;;;;;9.63;4.95;;;25.10;30.20;;;;;;6163404;28;80299;-74
2022/03/17 11:52:22;;;;;;;8.23;4.50;;;25.10;30.20;;;;;;6159667;28;81422;-76
2022/03/17 11:55:22;;;;;;;12.85;5.18;;;25.10;30.30;;;;;;6159777;28;86944;-71
2022/03/17 11:58:26;;;;;;;8.45;5.47;;;25.10;30.20;;;;;;6143198;28;80488;-72
2022/03/17 12:01:27;;;;;;;9.15;5.05;;;25.10;30.20;;;;;;6143411;28;80696;-75
2022/03/17 12:04:31;;;;;;;6.85;4.63;;;25.10;30.20;;;;;;6156963;28;80238;-74
2022/03/17 12:07:31;;;;;;;7.85;4.97;;;25.10;30.20;;;;;;6145885;28;80507;-75
2022/03/17 12:10:33;;;;;;;7.20;4.72;;;25.10;30.10;;;;;;6150735;28;81581;-77
2022/03/17 12:13:35;;;;;;;8.23;4.38;;;25.10;30.20;;;;;;6153175;28;80585;-64
2022/03/17 12:16:35;;;;;;;6.28;4.75;;;25.10;30.20;;;;;;6158216;28;80530;-65
2022/03/17 12:19:36;;;;;;;9.13;4.25;;;25.20;30.30;;;;;;6161562;28;80418;-64
2022/03/17 12:22:40;;;;;;;5.18;3.85;;;25.20;30.20;;;;;;6157988;28;80786;-64
2022/03/17 12:25:41;;;;;;;7.93;4.20;;;25.20;30.10;;;;;;6158122;28;81010;-66
2022/03/17 12:28:41;;;;;;;6.90;4.38;;;25.30;30.10;;;;;;6162753;28;80182;-75
2022/03/17 12:31:42;;;;;;;5.90;4.40;;;25.20;30.10;;;;;;6158457;28;83426;-76
2022/03/17 12:34:42;;;;;;;8.00;4.15;;;25.20;30.00;;;;;;6160742;28;80383;-77
2022/03/17 12:37:43;;;;;;;7.38;4.50;;;25.20;30.10;;;;;;6147075;28;81315;-76
2022/03/17 12:40:43;;;;;;;7.70;4.43;;;25.20;30.10;;;;;;6140739;28;80674;-80
2022/03/17 12:43:44;;;;;;;6.78;4.35;;;25.30;30.10;;;;;;6152892;28;80464;-77
2022/03/17 12:46:44;;;;;;;9.73;4.75;;;25.20;30.00;;;;;;6162731;28;80383;-76
2022/03/17 12:49:45;;;;;;;6.85;4.22;;;25.20;30.10;;;;;;6160962;28;81825;-76
2022/03/17 12:52:45;;;;;;;7.20;4.35;;;25.20;30.10;;;;;;6153626;28;81131;-76
2022/03/17 12:55:46;;;;;;;6.65;4.55;;;25.20;30.00;;;;;;6162279;28;81426;-79
2022/03/17 12:58:47;;;;;;;5.30;3.70;;;25.20;30.00;;;;;;6160747;28;80159;-77
2022/03/17 13:01:48;;;;;;;5.88;4.35;;;25.20;30.00;;;;;;6160278;28;82221;-78
2022/03/17 13:04:50;;;;;;;6.22;3.97;;;25.30;30.00;;;;;;6155048;28;80438;-78
2022/03/17 13:07:50;;;;;;;8.50;3.45;;;25.20;30.00;;;;;;6162850;28;80357;-79
2022/03/17 13:14:21;;;;;;;4.13;3.53;;;25.20;30.00;;;;;;6158025;28;80446;-75
2022/03/17 13:17:22;;;;;;;4.30;3.45;;;25.20;30.00;;;;;;6159332;28;80370;-74
2022/03/17 13:20:22;;;;;;;3.97;3.40;;;25.20;30.00;;;;;;6146872;28;81390;-71
2022/03/17 13:23:23;;;;;;;4.93;3.60;;;25.20;30.00;;;;;;6137028;28;81480;-73
2022/03/17 13:26:24;;;;;;;5.13;3.67;;;25.30;30.00;;;;;;6145208;28;80644;-73
2022/03/17 13:29:24;;;;;;;5.18;3.53;;;25.30;30.00;;;;;;6154834;28;80346;-76
2022/03/17 13:32:26;;;;;;;5.25;3.78;;;25.30;30.00;;;;;;6157568;28;81878;-74
2022/03/17 13:35:27;;;;;;;4.22;3.35;;;25.30;30.00;;;;;;6158298;28;82135;-75
2022/03/17 13:38:27;;;;;;;3.97;3.25;;;25.20;30.00;;;;;;6161541;28;80258;-75
2022/03/17 13:41:28;;;;;;;4.53;3.40;;;25.30;30.00;;;;;;6144271;28;81257;-75
2022/03/17 13:44:29;;;;;;;4.25;3.58;;;25.30;30.00;;;;;;6151470;28;83697;-74
2022/03/17 13:47:29;;;;;;;5.85;3.75;;;25.30;30.00;;;;;;6160554;28;80507;-74
2022/03/17 13:50:30;;;;;;;5.22;3.88;;;25.30;30.00;;;;;;6138528;28;80416;-75
2022/03/17 13:53:31;;;;;;;8.00;3.67;;;25.20;30.00;;;;;;6146845;28;81068;-73
2022/03/17 13:56:31;;;;;;;4.47;3.25;;;25.20;30.00;;;;;;6145394;28;80523;-74
2022/03/17 13:59:32;;;;;;;5.93;4.07;;;25.20;30.00;;;;;;6152428;28;80440;-75
2022/03/17 14:02:32;;;;;;;6.47;3.83;;;25.10;29.90;;;;;;6159070;28;80525;-72
2022/03/17 14:05:33;;;;;;;6.85;4.03;;;25.10;29.90;;;;;;6147830;28;80995;-74
2022/03/17 14:08:34;;;;;;;10.85;4.50;;;25.10;29.70;;;;;;6160117;28;80547;-75
2022/03/17 14:11:35;;;;;;;5.43;3.60;;;25.10;29.70;;;;;;6157194;28;80305;-73
2022/03/17 14:14:36;;;;;;;9.65;4.10;;;25.10;29.70;;;;;;6153534;28;81747;-74
2022/03/17 14:17:37;;;;;;;10.57;3.60;;;25.00;29.70;;;;;;6155021;28;81595;-73
2022/03/17 14:20:37;;;;;;;8.60;3.80;;;25.00;29.50;;;;;;6140769;28;82273;-74
2022/03/17 14:26:57;;;;;;;8.73;4.07;;;24.90;29.60;;;;;;6150352;28;80489;-75
2022/03/17 14:29:57;;;;;;;6.85;3.88;;;24.90;29.30;;;;;;6136866;28;80681;-75
2022/03/17 14:32:58;;;;;;;7.20;4.82;;;24.90;29.30;;;;;;6140884;28;80378;-75
2022/03/17 14:35:58;;;;;;;8.38;3.95;;;24.90;29.30;;;;;;6150370;28;80231;-75
2022/03/17 14:38:59;;;;;;;9.52;4.95;;;24.80;29.30;;;;;;6158731;28;81587;-75
2022/03/17 14:42:00;;;;;;;6.93;4.28;;;24.80;29.10;;;;;;6160301;28;80329;-78
2022/03/17 14:45:00;;;;;;;12.45;4.68;;;24.70;29.10;;;;;;6140155;28;81392;-77
2022/03/17 14:48:01;;;;;;;13.95;4.57;;;24.70;29.20;;;;;;6142172;28;81002;-77
2022/03/17 14:51:03;;;;;;;7.70;4.18;;;24.70;29.20;;;;;;6159984;28;80190;-78
2022/03/17 14:54:03;;;;;;;7.50;4.68;;;24.70;29.00;;;;;;6157027;28;80912;-78
2022/03/17 14:57:04;;;;;;;6.15;4.00;;;24.60;29.00;;;;;;6154503;28;80747;-78
2022/03/17 15:00:05;;;;;;;9.27;4.43;;;24.60;29.00;;;;;;6138891;28;80832;-77
2022/03/17 15:03:05;;;;;;;9.05;4.30;;;24.50;29.10;;;;;;6147058;28;80398;-72
2022/03/17 15:06:06;;;;;;;7.25;4.07;;;24.50;29.10;;;;;;6158030;28;81671;-75
2022/03/17 15:09:07;;;;;;;15.93;4.05;;;24.50;29.40;;;;;;6157425;28;81632;-78
2022/03/17 15:12:07;;;;;;;6.43;3.65;;;24.50;29.80;;;;;;6146262;28;81334;-76
2022/03/17 15:15:08;;;;;;;7.65;4.18;;;24.50;29.80;;;;;;6153558;28;80255;-74
2022/03/17 15:18:09;;;;;;;7.38;4.47;;;24.40;29.80;;;;;;6149898;28;80652;-74
2022/03/17 15:21:11;;;;;;;77.15;35.50;;;24.40;29.90;;;;;;6144041;28;80301;-77
2022/03/17 15:24:11;;;;;;;190.68;87.60;;;24.40;29.90;;;;;;6138568;28;82863;-76
2022/03/17 15:30:31;;;;;;;141.48;64.65;;;24.40;29.90;;;;;;6159024;28;84267;-74
2022/03/17 15:33:31;;;;;;;166.60;75.20;;;24.40;30.50;;;;;;6159293;28;84279;-73
2022/03/17 15:36:32;;;;;;;226.02;108.88;;;24.40;30.00;;;;;;6145538;28;83177;-73
2022/03/17 15:39:32;;;;;;;225.95;102.18;;;24.40;30.00;;;;;;6142639;28;85563;-75
2022/03/17 15:42:33;;;;;;;184.30;89.82;;;24.30;30.00;;;;;;6146440;28;85431;-76
2022/03/17 15:45:34;;;;;;;163.73;74.60;;;24.40;30.00;;;;;;6148451;28;85256;-78
2022/03/17 15:48:34;;;;;;;142.02;64.95;;;24.30;30.10;;;;;;6147064;28;84459;-76
2022/03/17 15:51:35;;;;;;;129.48;59.67;;;24.30;30.10;;;;;;6139603;28;83118;-76